sensor_id;sensor_type;location;lat;lon;timestamp;P1;durP1;ratioP1;P2;durP2;ratioP2
19754;SDS011;10036;47.812;9.274;2022-10-03T00:00:07;4.53;;;1.25;;
19754;SDS011;10036;47.812;9.274;2022-10-03T00:05:57;2.75;;;1.80;;
19754;SDS011;10036;47.812;9.274;2022-10-03T00:11:27;1.50;;;1.40;;
19754;SDS011;10036;47.812;9.274;2022-10-03T00:14:03;2.42;;;1.35;;
19754;SDS011;10036;47.812;9.274;2022-10-03T00:16:41;1.65;;;1.20;;
19754;SDS011;10036;47.812;9.274;2022-10-03T00:19:16;1.17;;;1.15;;
19754;SDS011;10036;47.812;9.274;2022-10-03T00:21:53;1.13;;;1.10;;
19754;SDS011;10036;47.812;9.274;2022-10-03T00:24:32;1.35;;;1.20;;
19754;SDS011;10036;47.812;9.274;2022-10-03T00:27:09;2.63;;;1.13;;
19754;SDS011;10036;47.812;9.274;2022-10-03T00:29:45;2.05;;;1.10;;
19754;SDS011;10036;47.812;9.274;2022-10-03T00:32:34;2.63;;;1.10;;
19754;SDS011;10036;47.812;9.274;2022-10-03T00:35:22;1.10;;;1.10;;
19754;SDS011;10036;47.812;9.274;2022-10-03T00:38:15;3.53;;;1.10;;
19754;SDS011;10036;47.812;9.274;2022-10-03T00:44:00;2.15;;;1.27;;
19754;SDS011;10036;47.812;9.274;2022-10-03T00:52:56;2.35;;;1.30;;
19754;SDS011;10036;47.812;9.274;2022-10-03T00:55:42;4.53;;;1.25;;
19754;SDS011;10036;47.812;9.274;2022-10-03T00:58:27;2.05;;;1.33;;
19754;SDS011;10036;47.812;9.274;2022-10-03T01:01:18;2.05;;;1.20;;
19754;SDS011;10036;47.812;9.274;2022-10-03T01:03:51;2.00;;;1.10;;
19754;SDS011;10036;47.812;9.274;2022-10-03T01:06:32;1.20;;;1.20;;
19754;SDS011;10036;47.812;9.274;2022-10-03T01:09:12;1.50;;;1.10;;
19754;SDS011;10036;47.812;9.274;2022-10-03T01:11:56;1.65;;;1.27;;
19754;SDS011;10036;47.812;9.274;2022-10-03T01:14:42;1.40;;;1.00;;
19754;SDS011;10036;47.812;9.274;2022-10-03T01:17:30;1.30;;;1.20;;
19754;SDS011;10036;47.812;9.274;2022-10-03T01:20:06;2.67;;;1.10;;
19754;SDS011;10036;47.812;9.274;2022-10-03T01:22:49;1.80;;;1.23;;
19754;SDS011;10036;47.812;9.274;2022-10-03T01:25:41;1.50;;;1.40;;
19754;SDS011;10036;47.812;9.274;2022-10-03T01:31:23;1.40;;;1.30;;
19754;SDS011;10036;47.812;9.274;2022-10-03T01:33:58;1.10;;;1.10;;
19754;SDS011;10036;47.812;9.274;2022-10-03T01:36:30;1.63;;;1.40;;
19754;SDS011;10036;47.812;9.274;2022-10-03T01:39:05;3.15;;;1.60;;
19754;SDS011;10036;47.812;9.274;2022-10-03T01:41:42;2.95;;;1.80;;
19754;SDS011;10036;47.812;9.274;2022-10-03T01:44:17;3.60;;;1.80;;
19754;SDS011;10036;47.812;9.274;2022-10-03T01:46:49;1.55;;;1.45;;
19754;SDS011;10036;47.812;9.274;2022-10-03T01:49:22;1.63;;;1.45;;
19754;SDS011;10036;47.812;9.274;2022-10-03T01:51:54;2.28;;;1.50;;
19754;SDS011;10036;47.812;9.274;2022-10-03T01:54:33;2.55;;;1.83;;
19754;SDS011;10036;47.812;9.274;2022-10-03T01:57:09;1.80;;;1.63;;
19754;SDS011;10036;47.812;9.274;2022-10-03T01:59:44;2.08;;;1.58;;
19754;SDS011;10036;47.812;9.274;2022-10-03T02:02:15;2.50;;;1.70;;
19754;SDS011;10036;47.812;9.274;2022-10-03T02:04:51;2.38;;;1.70;;
19754;SDS011;10036;47.812;9.274;2022-10-03T02:07:28;6.18;;;2.35;;
19754;SDS011;10036;47.812;9.274;2022-10-03T02:10:08;3.88;;;2.67;;
19754;SDS011;10036;47.812;9.274;2022-10-03T02:12:47;2.88;;;2.50;;
19754;SDS011;10036;47.812;9.274;2022-10-03T02:15:22;3.70;;;2.50;;
19754;SDS011;10036;47.812;9.274;2022-10-03T02:17:54;4.53;;;2.80;;
19754;SDS011;10036;47.812;9.274;2022-10-03T02:20:29;4.55;;;2.45;;
19754;SDS011;10036;47.812;9.274;2022-10-03T02:23:00;3.95;;;2.60;;
19754;SDS011;10036;47.812;9.274;2022-10-03T02:25:35;4.63;;;3.03;;
19754;SDS011;10036;47.812;9.274;2022-10-03T02:28:22;6.40;;;3.03;;
19754;SDS011;10036;47.812;9.274;2022-10-03T02:31:32;2.80;;;2.50;;
19754;SDS011;10036;47.812;9.274;2022-10-03T02:34:28;3.05;;;2.75;;
19754;SDS011;10036;47.812;9.274;2022-10-03T02:37:16;4.22;;;3.20;;
19754;SDS011;10036;47.812;9.274;2022-10-03T02:40:04;2.22;;;2.03;;
19754;SDS011;10036;47.812;9.274;2022-10-03T02:46:01;1.70;;;1.60;;
19754;SDS011;10036;47.812;9.274;2022-10-03T02:48:56;3.75;;;2.13;;
19754;SDS011;10036;47.812;9.274;2022-10-03T02:54:53;4.15;;;2.10;;
19754;SDS011;10036;47.812;9.274;2022-10-03T02:57:50;3.80;;;2.30;;
19754;SDS011;10036;47.812;9.274;2022-10-03T03:00:38;5.47;;;2.30;;
19754;SDS011;10036;47.812;9.274;2022-10-03T03:03:32;3.38;;;2.15;;
19754;SDS011;10036;47.812;9.274;2022-10-03T03:06:23;2.92;;;2.17;;
19754;SDS011;10036;47.812;9.274;2022-10-03T03:12:26;3.88;;;2.30;;
19754;SDS011;10036;47.812;9.274;2022-10-03T03:15:42;3.08;;;2.45;;
19754;SDS011;10036;47.812;9.274;2022-10-03T03:18:28;2.67;;;2.33;;
19754;SDS011;10036;47.812;9.274;2022-10-03T03:21:04;4.43;;;2.00;;
19754;SDS011;10036;47.812;9.274;2022-10-03T03:26:44;3.50;;;3.03;;
19754;SDS011;10036;47.812;9.274;2022-10-03T03:29:24;3.38;;;3.08;;
19754;SDS011;10036;47.812;9.274;2022-10-03T03:32:01;3.85;;;2.88;;
19754;SDS011;10036;47.812;9.274;2022-10-03T03:34:38;4.43;;;3.20;;
19754;SDS011;10036;47.812;9.274;2022-10-03T03:37:19;6.88;;;2.90;;
19754;SDS011;10036;47.812;9.274;2022-10-03T03:40:03;5.40;;;2.90;;
19754;SDS011;10036;47.812;9.274;2022-10-03T03:42:43;4.68;;;2.90;;
19754;SDS011;10036;47.812;9.274;2022-10-03T03:45:29;7.32;;;2.92;;
19754;SDS011;10036;47.812;9.274;2022-10-03T03:48:23;4.60;;;3.10;;
19754;SDS011;10036;47.812;9.274;2022-10-03T03:51:09;3.28;;;2.75;;
19754;SDS011;10036;47.812;9.274;2022-10-03T03:57:06;4.05;;;2.90;;
19754;SDS011;10036;47.812;9.274;2022-10-03T03:59:48;4.63;;;3.25;;
19754;SDS011;10036;47.812;9.274;2022-10-03T04:02:32;3.88;;;3.15;;
19754;SDS011;10036;47.812;9.274;2022-10-03T04:05:18;4.60;;;2.97;;
19754;SDS011;10036;47.812;9.274;2022-10-03T04:07:57;5.15;;;3.10;;
19754;SDS011;10036;47.812;9.274;2022-10-03T04:10:48;4.40;;;3.42;;
19754;SDS011;10036;47.812;9.274;2022-10-03T04:19:52;4.55;;;3.97;;
19754;SDS011;10036;47.812;9.274;2022-10-03T04:22:39;8.70;;;3.72;;
19754;SDS011;10036;47.812;9.274;2022-10-03T04:25:18;7.63;;;4.13;;
19754;SDS011;10036;47.812;9.274;2022-10-03T04:28:07;4.75;;;3.97;;
19754;SDS011;10036;47.812;9.274;2022-10-03T04:31:00;8.68;;;4.20;;
19754;SDS011;10036;47.812;9.274;2022-10-03T04:33:43;5.03;;;3.65;;
19754;SDS011;10036;47.812;9.274;2022-10-03T04:36:30;7.05;;;4.07;;
19754;SDS011;10036;47.812;9.274;2022-10-03T04:39:23;6.05;;;3.90;;
19754;SDS011;10036;47.812;9.274;2022-10-03T04:42:02;7.10;;;3.83;;
19754;SDS011;10036;47.812;9.274;2022-10-03T04:44:48;7.97;;;3.75;;
19754;SDS011;10036;47.812;9.274;2022-10-03T04:47:43;6.45;;;3.95;;
19754;SDS011;10036;47.812;9.274;2022-10-03T04:50:20;4.85;;;3.78;;
19754;SDS011;10036;47.812;9.274;2022-10-03T04:52:56;5.72;;;3.63;;
19754;SDS011;10036;47.812;9.274;2022-10-03T04:55:37;4.80;;;3.85;;
19754;SDS011;10036;47.812;9.274;2022-10-03T04:58:13;4.93;;;4.43;;
19754;SDS011;10036;47.812;9.274;2022-10-03T05:00:51;4.55;;;4.15;;
19754;SDS011;10036;47.812;9.274;2022-10-03T05:03:32;5.85;;;5.07;;
19754;SDS011;10036;47.812;9.274;2022-10-03T05:06:14;5.53;;;4.90;;
19754;SDS011;10036;47.812;9.274;2022-10-03T05:08:52;6.05;;;5.45;;
19754;SDS011;10036;47.812;9.274;2022-10-03T05:11:28;6.28;;;4.78;;
19754;SDS011;10036;47.812;9.274;2022-10-03T05:14:09;7.80;;;4.97;;
19754;SDS011;10036;47.812;9.274;2022-10-03T05:16:46;6.55;;;4.43;;
19754;SDS011;10036;47.812;9.274;2022-10-03T05:19:32;5.05;;;4.55;;
19754;SDS011;10036;47.812;9.274;2022-10-03T05:22:09;5.10;;;4.07;;
19754;SDS011;10036;47.812;9.274;2022-10-03T05:24:49;4.72;;;3.90;;
19754;SDS011;10036;47.812;9.274;2022-10-03T05:27:29;5.20;;;4.05;;
19754;SDS011;10036;47.812;9.274;2022-10-03T05:30:02;5.65;;;3.97;;
19754;SDS011;10036;47.812;9.274;2022-10-03T05:32:36;5.47;;;4.28;;
19754;SDS011;10036;47.812;9.274;2022-10-03T05:35:21;6.32;;;3.83;;
19754;SDS011;10036;47.812;9.274;2022-10-03T05:38:10;6.53;;;4.47;;
19754;SDS011;10036;47.812;9.274;2022-10-03T05:41:00;5.22;;;4.28;;
19754;SDS011;10036;47.812;9.274;2022-10-03T05:46:20;7.72;;;4.38;;
19754;SDS011;10036;47.812;9.274;2022-10-03T05:48:57;5.63;;;4.50;;
19754;SDS011;10036;47.812;9.274;2022-10-03T05:51:46;6.28;;;4.85;;
19754;SDS011;10036;47.812;9.274;2022-10-03T05:54:36;6.35;;;4.65;;
19754;SDS011;10036;47.812;9.274;2022-10-03T05:57:24;4.88;;;4.38;;
19754;SDS011;10036;47.812;9.274;2022-10-03T06:00:19;8.57;;;5.03;;
19754;SDS011;10036;47.812;9.274;2022-10-03T06:03:03;10.25;;;6.53;;
19754;SDS011;10036;47.812;9.274;2022-10-03T06:06:10;8.77;;;5.32;;
19754;SDS011;10036;47.812;9.274;2022-10-03T06:08:53;8.68;;;4.63;;
19754;SDS011;10036;47.812;9.274;2022-10-03T06:11:47;8.30;;;4.70;;
19754;SDS011;10036;47.812;9.274;2022-10-03T06:14:26;57.63;;;31.15;;
19754;SDS011;10036;47.812;9.274;2022-10-03T06:17:08;32.95;;;16.75;;
19754;SDS011;10036;47.812;9.274;2022-10-03T06:20:09;24.33;;;14.40;;
19754;SDS011;10036;47.812;9.274;2022-10-03T06:22:58;13.63;;;7.55;;
19754;SDS011;10036;47.812;9.274;2022-10-03T06:26:04;9.45;;;5.75;;
19754;SDS011;10036;47.812;9.274;2022-10-03T06:28:59;11.98;;;6.25;;
19754;SDS011;10036;47.812;9.274;2022-10-03T06:32:01;11.32;;;6.80;;
19754;SDS011;10036;47.812;9.274;2022-10-03T06:35:06;10.48;;;6.68;;
19754;SDS011;10036;47.812;9.274;2022-10-03T06:44:27;10.05;;;6.35;;
19754;SDS011;10036;47.812;9.274;2022-10-03T06:47:15;12.35;;;5.82;;
19754;SDS011;10036;47.812;9.274;2022-10-03T06:50:08;9.52;;;6.45;;
19754;SDS011;10036;47.812;9.274;2022-10-03T06:53:03;8.85;;;6.60;;
19754;SDS011;10036;47.812;9.274;2022-10-03T06:59:09;9.23;;;6.80;;
19754;SDS011;10036;47.812;9.274;2022-10-03T07:05:24;9.52;;;7.13;;
19754;SDS011;10036;47.812;9.274;2022-10-03T07:11:05;6.13;;;4.97;;
19754;SDS011;10036;47.812;9.274;2022-10-03T07:13:52;8.95;;;5.55;;
19754;SDS011;10036;47.812;9.274;2022-10-03T07:16:45;8.70;;;5.93;;
19754;SDS011;10036;47.812;9.274;2022-10-03T07:19:28;11.15;;;6.60;;
19754;SDS011;10036;47.812;9.274;2022-10-03T07:28:26;6.20;;;5.00;;
19754;SDS011;10036;47.812;9.274;2022-10-03T07:31:23;7.25;;;5.43;;
19754;SDS011;10036;47.812;9.274;2022-10-03T07:37:19;5.28;;;4.78;;
19754;SDS011;10036;47.812;9.274;2022-10-03T07:40:21;7.90;;;4.78;;
19754;SDS011;10036;47.812;9.274;2022-10-03T07:43:18;4.65;;;4.10;;
19754;SDS011;10036;47.812;9.274;2022-10-03T07:46:05;8.80;;;6.60;;
19754;SDS011;10036;47.812;9.274;2022-10-03T07:48:48;8.98;;;6.20;;
19754;SDS011;10036;47.812;9.274;2022-10-03T07:51:22;6.47;;;5.88;;
19754;SDS011;10036;47.812;9.274;2022-10-03T08:00:04;5.13;;;4.55;;
19754;SDS011;10036;47.812;9.274;2022-10-03T08:05:42;7.57;;;4.53;;
19754;SDS011;10036;47.812;9.274;2022-10-03T08:08:28;6.10;;;4.72;;
19754;SDS011;10036;47.812;9.274;2022-10-03T08:14:20;8.27;;;4.22;;
19754;SDS011;10036;47.812;9.274;2022-10-03T08:17:09;11.30;;;5.40;;
19754;SDS011;10036;47.812;9.274;2022-10-03T08:20:00;12.30;;;4.32;;
19754;SDS011;10036;47.812;9.274;2022-10-03T08:22:50;6.65;;;4.70;;
19754;SDS011;10036;47.812;9.274;2022-10-03T08:25:29;9.43;;;4.43;;
19754;SDS011;10036;47.812;9.274;2022-10-03T08:28:16;4.85;;;3.85;;
19754;SDS011;10036;47.812;9.274;2022-10-03T08:31:05;8.18;;;4.28;;
19754;SDS011;10036;47.812;9.274;2022-10-03T08:34:06;6.95;;;3.90;;
19754;SDS011;10036;47.812;9.274;2022-10-03T08:37:08;4.68;;;3.50;;
19754;SDS011;10036;47.812;9.274;2022-10-03T08:39:51;6.68;;;3.78;;
19754;SDS011;10036;47.812;9.274;2022-10-03T08:42:35;6.72;;;3.92;;
19754;SDS011;10036;47.812;9.274;2022-10-03T08:45:27;6.43;;;3.83;;
19754;SDS011;10036;47.812;9.274;2022-10-03T08:48:20;5.80;;;3.90;;
19754;SDS011;10036;47.812;9.274;2022-10-03T08:54:17;5.88;;;3.80;;
19754;SDS011;10036;47.812;9.274;2022-10-03T08:57:03;4.20;;;3.30;;
19754;SDS011;10036;47.812;9.274;2022-10-03T09:02:51;6.43;;;3.45;;
19754;SDS011;10036;47.812;9.274;2022-10-03T09:08:39;4.25;;;3.53;;
19754;SDS011;10036;47.812;9.274;2022-10-03T09:14:25;6.82;;;3.30;;
19754;SDS011;10036;47.812;9.274;2022-10-03T09:17:11;6.28;;;3.30;;
19754;SDS011;10036;47.812;9.274;2022-10-03T09:23:16;6.20;;;2.92;;
19754;SDS011;10036;47.812;9.274;2022-10-03T09:26:16;5.03;;;3.58;;
19754;SDS011;10036;47.812;9.274;2022-10-03T09:29:10;4.07;;;3.08;;
19754;SDS011;10036;47.812;9.274;2022-10-03T09:32:13;6.30;;;2.58;;
19754;SDS011;10036;47.812;9.274;2022-10-03T09:38:21;6.47;;;3.13;;
19754;SDS011;10036;47.812;9.274;2022-10-03T09:47:37;5.38;;;3.05;;
19754;SDS011;10036;47.812;9.274;2022-10-03T09:50:47;3.65;;;2.47;;
19754;SDS011;10036;47.812;9.274;2022-10-03T09:53:50;7.97;;;2.72;;
19754;SDS011;10036;47.812;9.274;2022-10-03T09:57:01;2.92;;;2.15;;
19754;SDS011;10036;47.812;9.274;2022-10-03T09:59:51;3.15;;;2.10;;
19754;SDS011;10036;47.812;9.274;2022-10-03T10:02:36;3.22;;;2.30;;
19754;SDS011;10036;47.812;9.274;2022-10-03T10:11:46;3.25;;;2.20;;
19754;SDS011;10036;47.812;9.274;2022-10-03T10:14:39;6.15;;;2.30;;
19754;SDS011;10036;47.812;9.274;2022-10-03T10:21:02;4.28;;;2.17;;
19754;SDS011;10036;47.812;9.274;2022-10-03T10:23:47;3.45;;;1.70;;
19754;SDS011;10036;47.812;9.274;2022-10-03T10:38:27;4.65;;;2.22;;
19754;SDS011;10036;47.812;9.274;2022-10-03T10:47:12;5.82;;;2.17;;
19754;SDS011;10036;47.812;9.274;2022-10-03T10:50:10;4.78;;;2.20;;
19754;SDS011;10036;47.812;9.274;2022-10-03T11:02:38;5.38;;;2.13;;
19754;SDS011;10036;47.812;9.274;2022-10-03T11:05:45;4.75;;;2.20;;
19754;SDS011;10036;47.812;9.274;2022-10-03T11:12:01;5.32;;;2.25;;
19754;SDS011;10036;47.812;9.274;2022-10-03T11:18:17;4.40;;;2.20;;
19754;SDS011;10036;47.812;9.274;2022-10-03T11:30:19;2.10;;;1.85;;
19754;SDS011;10036;47.812;9.274;2022-10-03T11:39:13;6.32;;;4.18;;
19754;SDS011;10036;47.812;9.274;2022-10-03T11:41:50;4.65;;;2.75;;
19754;SDS011;10036;47.812;9.274;2022-10-03T11:44:26;3.58;;;2.42;;
19754;SDS011;10036;47.812;9.274;2022-10-03T11:47:01;4.00;;;2.03;;
19754;SDS011;10036;47.812;9.274;2022-10-03T11:52:51;7.07;;;3.17;;
19754;SDS011;10036;47.812;9.274;2022-10-03T11:55:40;3.92;;;2.33;;
19754;SDS011;10036;47.812;9.274;2022-10-03T11:58:21;5.32;;;2.40;;
19754;SDS011;10036;47.812;9.274;2022-10-03T12:01:01;3.63;;;2.42;;
19754;SDS011;10036;47.812;9.274;2022-10-03T12:03:44;5.30;;;2.10;;
19754;SDS011;10036;47.812;9.274;2022-10-03T12:06:24;3.78;;;2.28;;
19754;SDS011;10036;47.812;9.274;2022-10-03T12:09:27;4.50;;;2.30;;
19754;SDS011;10036;47.812;9.274;2022-10-03T12:12:05;3.42;;;2.00;;
19754;SDS011;10036;47.812;9.274;2022-10-03T12:14:41;3.50;;;2.17;;
19754;SDS011;10036;47.812;9.274;2022-10-03T12:17:11;3.83;;;2.20;;
19754;SDS011;10036;47.812;9.274;2022-10-03T12:19:43;4.93;;;2.10;;
19754;SDS011;10036;47.812;9.274;2022-10-03T12:22:25;2.97;;;2.03;;
19754;SDS011;10036;47.812;9.274;2022-10-03T12:25:05;5.53;;;2.47;;
19754;SDS011;10036;47.812;9.274;2022-10-03T12:27:46;3.42;;;1.95;;
19754;SDS011;10036;47.812;9.274;2022-10-03T12:30:22;4.22;;;2.10;;
19754;SDS011;10036;47.812;9.274;2022-10-03T12:32:54;3.65;;;2.00;;
19754;SDS011;10036;47.812;9.274;2022-10-03T12:35:41;3.95;;;2.00;;
19754;SDS011;10036;47.812;9.274;2022-10-03T12:38:23;4.55;;;2.28;;
19754;SDS011;10036;47.812;9.274;2022-10-03T12:41:02;6.95;;;2.30;;
19754;SDS011;10036;47.812;9.274;2022-10-03T12:43:45;4.93;;;2.08;;
19754;SDS011;10036;47.812;9.274;2022-10-03T12:46:29;4.25;;;2.10;;
19754;SDS011;10036;47.812;9.274;2022-10-03T12:49:04;5.88;;;1.98;;
19754;SDS011;10036;47.812;9.274;2022-10-03T12:51:46;3.35;;;2.17;;
19754;SDS011;10036;47.812;9.274;2022-10-03T13:00:13;5.03;;;2.30;;
19754;SDS011;10036;47.812;9.274;2022-10-03T13:02:46;3.97;;;2.17;;
19754;SDS011;10036;47.812;9.274;2022-10-03T13:05:31;4.40;;;2.00;;
19754;SDS011;10036;47.812;9.274;2022-10-03T13:08:10;4.40;;;1.90;;
19754;SDS011;10036;47.812;9.274;2022-10-03T13:10:53;1.95;;;1.75;;
19754;SDS011;10036;47.812;9.274;2022-10-03T13:13:29;3.55;;;1.80;;
19754;SDS011;10036;47.812;9.274;2022-10-03T13:16:02;3.47;;;1.90;;
19754;SDS011;10036;47.812;9.274;2022-10-03T13:18:42;6.15;;;2.00;;
19754;SDS011;10036;47.812;9.274;2022-10-03T13:21:19;5.40;;;2.30;;
19754;SDS011;10036;47.812;9.274;2022-10-03T13:23:55;3.95;;;2.03;;
19754;SDS011;10036;47.812;9.274;2022-10-03T13:26:27;3.80;;;2.10;;
19754;SDS011;10036;47.812;9.274;2022-10-03T13:32:09;3.60;;;2.05;;
19754;SDS011;10036;47.812;9.274;2022-10-03T13:34:45;5.53;;;2.10;;
19754;SDS011;10036;47.812;9.274;2022-10-03T13:38:03;5.82;;;2.20;;
19754;SDS011;10036;47.812;9.274;2022-10-03T13:40:53;4.55;;;2.10;;
19754;SDS011;10036;47.812;9.274;2022-10-03T13:43:24;4.18;;;1.80;;
19754;SDS011;10036;47.812;9.274;2022-10-03T13:46:03;2.25;;;1.95;;
19754;SDS011;10036;47.812;9.274;2022-10-03T13:48:38;3.03;;;2.00;;
19754;SDS011;10036;47.812;9.274;2022-10-03T13:51:11;2.05;;;1.80;;
19754;SDS011;10036;47.812;9.274;2022-10-03T13:53:53;6.70;;;1.80;;
19754;SDS011;10036;47.812;9.274;2022-10-03T13:56:32;4.07;;;2.03;;
19754;SDS011;10036;47.812;9.274;2022-10-03T13:59:13;3.17;;;1.90;;
19754;SDS011;10036;47.812;9.274;2022-10-03T14:02:09;3.72;;;2.13;;
19754;SDS011;10036;47.812;9.274;2022-10-03T14:04:57;2.20;;;1.80;;
19754;SDS011;10036;47.812;9.274;2022-10-03T14:07:45;2.72;;;1.73;;
19754;SDS011;10036;47.812;9.274;2022-10-03T14:10:21;5.47;;;1.98;;
19754;SDS011;10036;47.812;9.274;2022-10-03T14:13:07;4.32;;;1.90;;
19754;SDS011;10036;47.812;9.274;2022-10-03T14:15:44;6.90;;;2.15;;
19754;SDS011;10036;47.812;9.274;2022-10-03T14:18:20;3.47;;;2.00;;
19754;SDS011;10036;47.812;9.274;2022-10-03T14:23:54;5.70;;;2.28;;
19754;SDS011;10036;47.812;9.274;2022-10-03T14:26:29;3.00;;;1.85;;
19754;SDS011;10036;47.812;9.274;2022-10-03T14:29:03;4.40;;;1.92;;
19754;SDS011;10036;47.812;9.274;2022-10-03T14:31:39;3.10;;;2.13;;
19754;SDS011;10036;47.812;9.274;2022-10-03T14:34:27;4.40;;;1.80;;
19754;SDS011;10036;47.812;9.274;2022-10-03T14:37:07;2.47;;;1.98;;
19754;SDS011;10036;47.812;9.274;2022-10-03T14:39:48;2.90;;;2.05;;
19754;SDS011;10036;47.812;9.274;2022-10-03T14:42:32;2.78;;;2.03;;
19754;SDS011;10036;47.812;9.274;2022-10-03T14:45:05;6.47;;;2.20;;
19754;SDS011;10036;47.812;9.274;2022-10-03T14:47:34;4.45;;;1.90;;
19754;SDS011;10036;47.812;9.274;2022-10-03T14:50:06;3.10;;;1.98;;
19754;SDS011;10036;47.812;9.274;2022-10-03T14:52:41;3.20;;;2.00;;
19754;SDS011;10036;47.812;9.274;2022-10-03T14:55:13;4.68;;;2.08;;
19754;SDS011;10036;47.812;9.274;2022-10-03T14:57:44;3.97;;;1.83;;
19754;SDS011;10036;47.812;9.274;2022-10-03T15:00:24;3.40;;;1.90;;
19754;SDS011;10036;47.812;9.274;2022-10-03T15:02:58;3.15;;;1.90;;
19754;SDS011;10036;47.812;9.274;2022-10-03T15:05:53;2.83;;;1.77;;
19754;SDS011;10036;47.812;9.274;2022-10-03T15:08:25;2.95;;;1.88;;
19754;SDS011;10036;47.812;9.274;2022-10-03T15:10:59;5.00;;;2.10;;
19754;SDS011;10036;47.812;9.274;2022-10-03T15:13:27;2.20;;;1.90;;
19754;SDS011;10036;47.812;9.274;2022-10-03T15:16:00;3.75;;;1.95;;
19754;SDS011;10036;47.812;9.274;2022-10-03T15:18:28;3.55;;;2.00;;
19754;SDS011;10036;47.812;9.274;2022-10-03T15:20:58;3.03;;;1.85;;
19754;SDS011;10036;47.812;9.274;2022-10-03T15:23:26;2.97;;;1.90;;
19754;SDS011;10036;47.812;9.274;2022-10-03T15:25:57;2.45;;;1.80;;
19754;SDS011;10036;47.812;9.274;2022-10-03T15:28:26;4.45;;;1.85;;
19754;SDS011;10036;47.812;9.274;2022-10-03T15:30:55;3.08;;;1.75;;
19754;SDS011;10036;47.812;9.274;2022-10-03T15:33:32;3.13;;;2.10;;
19754;SDS011;10036;47.812;9.274;2022-10-03T15:36:08;4.47;;;2.78;;
19754;SDS011;10036;47.812;9.274;2022-10-03T15:38:39;2.75;;;2.45;;
19754;SDS011;10036;47.812;9.274;2022-10-03T15:41:08;3.70;;;2.28;;
19754;SDS011;10036;47.812;9.274;2022-10-03T15:43:40;2.10;;;1.63;;
19754;SDS011;10036;47.812;9.274;2022-10-03T15:46:25;4.68;;;1.95;;
19754;SDS011;10036;47.812;9.274;2022-10-03T15:48:56;3.28;;;2.05;;
19754;SDS011;10036;47.812;9.274;2022-10-03T15:51:29;2.22;;;1.80;;
19754;SDS011;10036;47.812;9.274;2022-10-03T15:54:03;3.58;;;1.90;;
19754;SDS011;10036;47.812;9.274;2022-10-03T15:56:34;3.03;;;1.83;;
19754;SDS011;10036;47.812;9.274;2022-10-03T15:59:05;5.05;;;1.83;;
19754;SDS011;10036;47.812;9.274;2022-10-03T16:01:36;3.72;;;2.20;;
19754;SDS011;10036;47.812;9.274;2022-10-03T16:04:06;6.07;;;2.10;;
19754;SDS011;10036;47.812;9.274;2022-10-03T16:06:42;4.97;;;2.15;;
19754;SDS011;10036;47.812;9.274;2022-10-03T16:09:15;4.25;;;2.08;;
19754;SDS011;10036;47.812;9.274;2022-10-03T16:11:53;5.18;;;2.28;;
19754;SDS011;10036;47.812;9.274;2022-10-03T16:14:27;3.20;;;2.17;;
19754;SDS011;10036;47.812;9.274;2022-10-03T16:17:00;3.70;;;2.08;;
19754;SDS011;10036;47.812;9.274;2022-10-03T16:19:37;3.72;;;2.00;;
19754;SDS011;10036;47.812;9.274;2022-10-03T16:22:09;4.75;;;2.58;;
19754;SDS011;10036;47.812;9.274;2022-10-03T16:24:48;2.00;;;1.90;;
19754;SDS011;10036;47.812;9.274;2022-10-03T16:27:23;5.20;;;2.20;;
19754;SDS011;10036;47.812;9.274;2022-10-03T16:30:04;2.00;;;1.90;;
19754;SDS011;10036;47.812;9.274;2022-10-03T16:32:44;3.40;;;2.78;;
19754;SDS011;10036;47.812;9.274;2022-10-03T16:35:23;6.43;;;2.67;;
19754;SDS011;10036;47.812;9.274;2022-10-03T16:37:58;3.85;;;2.70;;
19754;SDS011;10036;47.812;9.274;2022-10-03T16:40:27;3.08;;;2.55;;
19754;SDS011;10036;47.812;9.274;2022-10-03T16:42:55;3.00;;;2.20;;
19754;SDS011;10036;47.812;9.274;2022-10-03T16:45:25;3.65;;;2.70;;
19754;SDS011;10036;47.812;9.274;2022-10-03T16:47:56;2.83;;;2.40;;
19754;SDS011;10036;47.812;9.274;2022-10-03T16:50:45;5.70;;;2.78;;
19754;SDS011;10036;47.812;9.274;2022-10-03T16:53:18;5.32;;;2.90;;
19754;SDS011;10036;47.812;9.274;2022-10-03T16:55:47;4.43;;;2.70;;
19754;SDS011;10036;47.812;9.274;2022-10-03T16:58:17;5.25;;;3.05;;
19754;SDS011;10036;47.812;9.274;2022-10-03T17:00:49;4.70;;;3.22;;
19754;SDS011;10036;47.812;9.274;2022-10-03T17:03:27;5.72;;;3.90;;
19754;SDS011;10036;47.812;9.274;2022-10-03T17:05:57;11.32;;;5.90;;
19754;SDS011;10036;47.812;9.274;2022-10-03T17:08:29;10.90;;;5.53;;
19754;SDS011;10036;47.812;9.274;2022-10-03T17:11:01;8.82;;;5.30;;
19754;SDS011;10036;47.812;9.274;2022-10-03T17:13:37;6.40;;;4.40;;
19754;SDS011;10036;47.812;9.274;2022-10-03T17:16:10;8.50;;;3.88;;
19754;SDS011;10036;47.812;9.274;2022-10-03T17:18:41;4.85;;;3.65;;
19754;SDS011;10036;47.812;9.274;2022-10-03T17:21:26;5.22;;;3.78;;
19754;SDS011;10036;47.812;9.274;2022-10-03T17:23:58;3.95;;;3.22;;
19754;SDS011;10036;47.812;9.274;2022-10-03T17:26:32;4.85;;;3.38;;
19754;SDS011;10036;47.812;9.274;2022-10-03T17:29:07;5.82;;;3.33;;
19754;SDS011;10036;47.812;9.274;2022-10-03T17:31:41;5.00;;;3.70;;
19754;SDS011;10036;47.812;9.274;2022-10-03T17:34:12;5.88;;;3.40;;
19754;SDS011;10036;47.812;9.274;2022-10-03T17:36:46;7.15;;;3.85;;
19754;SDS011;10036;47.812;9.274;2022-10-03T17:39:40;5.78;;;3.70;;
19754;SDS011;10036;47.812;9.274;2022-10-03T17:42:16;9.18;;;3.50;;
19754;SDS011;10036;47.812;9.274;2022-10-03T17:44:55;7.85;;;4.00;;
19754;SDS011;10036;47.812;9.274;2022-10-03T17:47:27;8.20;;;3.58;;
19754;SDS011;10036;47.812;9.274;2022-10-03T17:50:03;4.75;;;3.85;;
19754;SDS011;10036;47.812;9.274;2022-10-03T17:52:38;5.32;;;3.60;;
19754;SDS011;10036;47.812;9.274;2022-10-03T17:55:11;6.90;;;3.72;;
19754;SDS011;10036;47.812;9.274;2022-10-03T17:57:44;9.98;;;3.90;;
19754;SDS011;10036;47.812;9.274;2022-10-03T18:00:16;5.05;;;3.53;;
19754;SDS011;10036;47.812;9.274;2022-10-03T18:02:47;6.97;;;4.10;;
19754;SDS011;10036;47.812;9.274;2022-10-03T18:05:22;8.18;;;5.00;;
19754;SDS011;10036;47.812;9.274;2022-10-03T18:07:53;7.13;;;5.18;;
19754;SDS011;10036;47.812;9.274;2022-10-03T18:10:23;24.83;;;17.80;;
19754;SDS011;10036;47.812;9.274;2022-10-03T18:12:53;21.92;;;16.40;;
19754;SDS011;10036;47.812;9.274;2022-10-03T18:21:34;6.90;;;5.20;;
19754;SDS011;10036;47.812;9.274;2022-10-03T18:24:31;8.05;;;5.03;;
19754;SDS011;10036;47.812;9.274;2022-10-03T18:27:35;8.40;;;4.72;;
19754;SDS011;10036;47.812;9.274;2022-10-03T18:30:23;9.10;;;5.30;;
19754;SDS011;10036;47.812;9.274;2022-10-03T18:32:56;5.80;;;5.15;;
19754;SDS011;10036;47.812;9.274;2022-10-03T18:35:26;5.97;;;5.00;;
19754;SDS011;10036;47.812;9.274;2022-10-03T18:38:00;8.05;;;5.60;;
19754;SDS011;10036;47.812;9.274;2022-10-03T18:40:32;7.72;;;4.80;;
19754;SDS011;10036;47.812;9.274;2022-10-03T18:43:04;9.50;;;5.03;;
19754;SDS011;10036;47.812;9.274;2022-10-03T18:45:32;6.78;;;4.68;;
19754;SDS011;10036;47.812;9.274;2022-10-03T18:48:06;9.93;;;4.90;;
19754;SDS011;10036;47.812;9.274;2022-10-03T18:50:50;8.73;;;5.20;;
19754;SDS011;10036;47.812;9.274;2022-10-03T18:53:24;9.65;;;4.70;;
19754;SDS011;10036;47.812;9.274;2022-10-03T18:55:59;6.88;;;4.60;;
19754;SDS011;10036;47.812;9.274;2022-10-03T18:58:30;7.82;;;4.97;;
19754;SDS011;10036;47.812;9.274;2022-10-03T19:01:01;11.90;;;4.70;;
19754;SDS011;10036;47.812;9.274;2022-10-03T19:03:33;7.20;;;5.60;;
19754;SDS011;10036;47.812;9.274;2022-10-03T19:06:03;9.90;;;5.30;;
19754;SDS011;10036;47.812;9.274;2022-10-03T19:08:33;7.45;;;4.68;;
19754;SDS011;10036;47.812;9.274;2022-10-03T19:11:07;7.50;;;4.53;;
19754;SDS011;10036;47.812;9.274;2022-10-03T19:13:42;4.75;;;3.85;;
19754;SDS011;10036;47.812;9.274;2022-10-03T19:16:19;5.68;;;4.32;;
19754;SDS011;10036;47.812;9.274;2022-10-03T19:19:00;8.60;;;4.78;;